首页
METAR-TAF:

METAR-TAF

机场 :

South Bend Regional Airport

南本德, 印第安纳州, 美国

纬度: 41-42-32N, 经度: 086-19-07W, 海拔: 244米

当前天气观测

该预报发布于58分钟前的07:54 UTC
风速18节,风向西,有时为25节阵风
温度 -2°C
湿度 74%
气压 1010 hPa
能見度: 16.1公里
阴天层高于1700英尺

METAR: KSBN 100754Z AUTO 26018G25KT 10SM OVC017 M02/M06 A2983 RMK AO2 SLP108 T10221061

时间: 03:52 (08:52 UTC)

预报

该预报发布于3小时和16分钟前的05:36 UTC
预报有效从10日的 06点(UTC)到 11日的 06点(UTC)
风速16节,风向西,有时为26节阵风
能見度: 10公里
阴天层高于1500英尺
从 10日的 1300点(UTC)
风速14节,风向西
能見度: 10公里
阴天层高于2000英尺
从 10日的 2100点(UTC)
风速12节,风向西转西南
能見度: 10公里
天空无云

TAF: KSBN 100536Z 1006/1106 28016G26KT P6SM OVC015 FM101300 28014KT P6SM OVC020 FM102100 25012KT P6SM SKC

超过4000个机场的气象观测和天气预报(METAR&TAF报告)。

可查询的气象台以黄色和红色小点在地图上表示。

将鼠标移到小点上方,可查看气象台名称。

然后点击查看天气观测和预报。

如需切换地图:点击带黑十字的绿色按钮放大地图;点击带横线的绿色按钮缩小地图;或者点击绿色箭头查看邻近地区的地图。


METAR-TAF: